• Join FlightAware (Why Join?)
  • Login
  • US Flag 
08:54AM EST


 

Airport Tracker/Info


-or-


 

Live Flight TrackerFlight Track Log ✈ EJM68 ✈ 26-Sep-2013 ✈ KENW - KMLI

Flight Track Log - Related Links

Times and Time Zones

All times are in EDT time to prevent confusion due to time zone crossing. See the EJM68 flight status page for this flight to view local times or setup timezone preferences in your user account.

Time Position Orientation Groundspeed Altitude Reporting Facility
EDT Latitude Longitude Course Direction KTS MPH feet Rate Location/Type
12:05PM 42.6000 -87.9167 360° North 150 173 1,300  Level KMKE
12:05PM 42.6167 -87.9167 360° North 168 193 1,900 2,220 Climbing KMKE
12:06PM 42.6333 -87.9833 289° West 220 253 4,300 2,760 Climbing KMKE
12:08PM 42.6614 -88.1189 286° West 261 300 8,800 3,240 Climbing Chicago Center
12:09PM 42.6656 -88.2336 273° West 305 351 12,600 3,300 Climbing Chicago Center
12:10PM 42.6503 -88.3642 261° West 354 407 15,700 1,560 Climbing Chicago Center
12:11PM 42.5864 -88.4864 235° Southwest 415 478 15,900 60 Climbing Chicago Center
12:12PM 42.4794 -88.6092 220° Southwest 419 482 15,900  Level Chicago Center
12:13PM 42.4022 -88.7286 229° Southwest 421 484 15,900  Level Chicago Center
12:14PM 42.3392 -88.8578 237° Southwest 415 478 16,000  Climbing Chicago Center
12:15PM 42.2714 -88.9819 234° Southwest 411 473 16,000  Level Chicago Center
12:16PM 42.2042 -89.1103 235° Southwest 415 478 16,000  Level Chicago Center
12:17PM 42.1378 -89.2372 235° Southwest 415 478 16,000  Level Chicago Center
12:18PM 42.0553 -89.3903 234° Southwest 415 478 16,000  Level Chicago Center
12:19PM 41.9883 -89.5150 234° Southwest 414 476 16,000  Level Chicago Center
12:20PM 41.9211 -89.6394 234° Southwest 413 475 16,000 -600 Level Chicago Center
12:21PM 41.8542 -89.7606 233° Southwest 412 474 14,800 -1,560 Descending Chicago Center
12:22PM 41.7900 -89.8778 234° Southwest 406 467 12,800 -1,980 Descending Chicago Center
12:23PM 41.7544 -90.0086 250° West 390 449 10,800 -1,740 Descending Chicago Center
12:24PM 41.7183 -90.1364 249° West 328 377 9,300 -1,440 Descending Chicago Center
12:25PM 41.6911 -90.2322 249° West 283 326 7,900 -1,560 Descending Chicago Center
12:26PM 41.6628 -90.3356 250° West 290 334 6,100 -1,260 Descending Chicago Center
12:27PM 41.6344 -90.4275 248° West 278 320 5,400 -1,020 Descending Chicago Center
12:28PM 41.6100 -90.5189 250° West 271 312 4,000 -1,020 Descending Chicago Center
12:30PM 41.5578 -90.6069 232° Southwest 271 312 3,400 -720 Descending Chicago Center
12:31PM 41.5022 -90.5994 174° South 232 267 2,600 -600 Descending Chicago Center
12:32PM 41.4550 -90.5922 173° South 217 250 2,200 -420 Descending Chicago Center
12:34PM 41.4483 -90.5075 147° Southeast  Level Estimated